sensor_id;sensor_type;location;lat;lon;timestamp;P1;durP1;ratioP1;P2;durP2;ratioP2
5491;SDS011;2768;53.540;10.224;2022-11-20T00:00:45;3.60;;;3.30;;
5491;SDS011;2768;53.540;10.224;2022-11-20T00:06:38;3.27;;;2.97;;
5491;SDS011;2768;53.540;10.224;2022-11-20T00:12:33;3.57;;;3.27;;
5491;SDS011;2768;53.540;10.224;2022-11-20T00:18:26;3.17;;;2.87;;
5491;SDS011;2768;53.540;10.224;2022-11-20T00:24:19;2.73;;;2.53;;
5491;SDS011;2768;53.540;10.224;2022-11-20T00:30:14;4.03;;;3.07;;
5491;SDS011;2768;53.540;10.224;2022-11-20T00:36:08;3.40;;;2.90;;
5491;SDS011;2768;53.540;10.224;2022-11-20T00:42:03;3.00;;;2.80;;
5491;SDS011;2768;53.540;10.224;2022-11-20T00:47:58;4.00;;;3.60;;
5491;SDS011;2768;53.540;10.224;2022-11-20T00:53:51;5.30;;;3.03;;
5491;SDS011;2768;53.540;10.224;2022-11-20T00:59:47;2.83;;;2.63;;
5491;SDS011;2768;53.540;10.224;2022-11-20T01:05:42;2.80;;;2.60;;
5491;SDS011;2768;53.540;10.224;2022-11-20T01:11:36;2.80;;;2.60;;
5491;SDS011;2768;53.540;10.224;2022-11-20T01:17:31;2.90;;;2.70;;
5491;SDS011;2768;53.540;10.224;2022-11-20T01:23:26;3.67;;;3.13;;
5491;SDS011;2768;53.540;10.224;2022-11-20T01:29:20;3.57;;;3.10;;
5491;SDS011;2768;53.540;10.224;2022-11-20T01:35:15;2.73;;;2.50;;
5491;SDS011;2768;53.540;10.224;2022-11-20T01:41:10;3.70;;;3.03;;
5491;SDS011;2768;53.540;10.224;2022-11-20T01:47:27;3.03;;;2.73;;
5491;SDS011;2768;53.540;10.224;2022-11-20T01:53:25;3.70;;;3.07;;
5491;SDS011;2768;53.540;10.224;2022-11-20T01:59:25;4.57;;;2.87;;
5491;SDS011;2768;53.540;10.224;2022-11-20T02:05:22;3.20;;;2.90;;
5491;SDS011;2768;53.540;10.224;2022-11-20T02:11:18;4.23;;;3.40;;
5491;SDS011;2768;53.540;10.224;2022-11-20T02:17:13;3.20;;;3.00;;
5491;SDS011;2768;53.540;10.224;2022-11-20T02:23:08;5.10;;;3.13;;
5491;SDS011;2768;53.540;10.224;2022-11-20T02:29:06;3.10;;;2.87;;
5491;SDS011;2768;53.540;10.224;2022-11-20T02:35:05;4.17;;;3.43;;
5491;SDS011;2768;53.540;10.224;2022-11-20T02:41:00;3.57;;;3.30;;
5491;SDS011;2768;53.540;10.224;2022-11-20T02:46:56;3.30;;;3.00;;
5491;SDS011;2768;53.540;10.224;2022-11-20T02:52:50;3.50;;;3.03;;
5491;SDS011;2768;53.540;10.224;2022-11-20T02:58:43;3.80;;;3.50;;
5491;SDS011;2768;53.540;10.224;2022-11-20T03:04:38;3.13;;;2.70;;
5491;SDS011;2768;53.540;10.224;2022-11-20T03:10:32;3.50;;;3.20;;
5491;SDS011;2768;53.540;10.224;2022-11-20T03:16:25;4.43;;;4.03;;
5491;SDS011;2768;53.540;10.224;2022-11-20T03:22:20;3.73;;;3.40;;
5491;SDS011;2768;53.540;10.224;2022-11-20T03:28:13;3.83;;;3.53;;
5491;SDS011;2768;53.540;10.224;2022-11-20T03:34:07;3.17;;;2.97;;
5491;SDS011;2768;53.540;10.224;2022-11-20T03:40:03;3.80;;;3.47;;
5491;SDS011;2768;53.540;10.224;2022-11-20T03:45:57;3.40;;;3.10;;
5491;SDS011;2768;53.540;10.224;2022-11-20T03:51:51;3.50;;;3.20;;
5491;SDS011;2768;53.540;10.224;2022-11-20T03:57:46;5.30;;;3.17;;
5491;SDS011;2768;53.540;10.224;2022-11-20T04:03:40;3.50;;;3.20;;
5491;SDS011;2768;53.540;10.224;2022-11-20T04:09:34;3.93;;;3.10;;
5491;SDS011;2768;53.540;10.224;2022-11-20T04:15:29;2.93;;;2.73;;
5491;SDS011;2768;53.540;10.224;2022-11-20T04:21:28;3.47;;;3.17;;
5491;SDS011;2768;53.540;10.224;2022-11-20T04:27:22;3.20;;;2.90;;
5491;SDS011;2768;53.540;10.224;2022-11-20T04:33:17;3.90;;;3.60;;
5491;SDS011;2768;53.540;10.224;2022-11-20T04:39:13;3.40;;;3.00;;
5491;SDS011;2768;53.540;10.224;2022-11-20T04:45:09;3.10;;;2.53;;
5491;SDS011;2768;53.540;10.224;2022-11-20T04:51:04;3.20;;;2.97;;
5491;SDS011;2768;53.540;10.224;2022-11-20T04:56:58;2.80;;;2.50;;
5491;SDS011;2768;53.540;10.224;2022-11-20T05:02:51;3.20;;;2.90;;
5491;SDS011;2768;53.540;10.224;2022-11-20T05:08:46;3.10;;;2.80;;
5491;SDS011;2768;53.540;10.224;2022-11-20T05:14:40;2.83;;;2.63;;
5491;SDS011;2768;53.540;10.224;2022-11-20T05:20:33;2.70;;;2.50;;
5491;SDS011;2768;53.540;10.224;2022-11-20T05:26:29;3.47;;;3.17;;
5491;SDS011;2768;53.540;10.224;2022-11-20T05:32:22;3.00;;;2.80;;
5491;SDS011;2768;53.540;10.224;2022-11-20T05:38:16;3.70;;;3.40;;
5491;SDS011;2768;53.540;10.224;2022-11-20T05:44:11;3.60;;;3.30;;
5491;SDS011;2768;53.540;10.224;2022-11-20T05:50:05;2.77;;;2.63;;
5491;SDS011;2768;53.540;10.224;2022-11-20T05:55:59;3.40;;;3.10;;
5491;SDS011;2768;53.540;10.224;2022-11-20T06:01:54;3.07;;;2.77;;
5491;SDS011;2768;53.540;10.224;2022-11-20T06:07:47;3.27;;;2.97;;
5491;SDS011;2768;53.540;10.224;2022-11-20T06:13:40;3.40;;;3.20;;
5491;SDS011;2768;53.540;10.224;2022-11-20T06:19:36;3.80;;;3.50;;
5491;SDS011;2768;53.540;10.224;2022-11-20T06:25:29;4.20;;;3.57;;
5491;SDS011;2768;53.540;10.224;2022-11-20T06:31:23;3.90;;;3.60;;
5491;SDS011;2768;53.540;10.224;2022-11-20T06:37:19;3.90;;;3.50;;
5491;SDS011;2768;53.540;10.224;2022-11-20T06:43:12;4.40;;;4.00;;
5491;SDS011;2768;53.540;10.224;2022-11-20T06:49:05;4.30;;;3.60;;
5491;SDS011;2768;53.540;10.224;2022-11-20T06:55:00;5.00;;;4.60;;
5491;SDS011;2768;53.540;10.224;2022-11-20T07:00:53;3.73;;;3.40;;
5491;SDS011;2768;53.540;10.224;2022-11-20T07:06:50;4.60;;;4.20;;
5491;SDS011;2768;53.540;10.224;2022-11-20T07:12:50;4.30;;;4.00;;
5491;SDS011;2768;53.540;10.224;2022-11-20T07:18:43;4.10;;;3.70;;
5491;SDS011;2768;53.540;10.224;2022-11-20T07:24:41;5.53;;;5.13;;
5491;SDS011;2768;53.540;10.224;2022-11-20T07:30:37;6.50;;;5.90;;
5491;SDS011;2768;53.540;10.224;2022-11-20T07:36:31;6.27;;;5.77;;
5491;SDS011;2768;53.540;10.224;2022-11-20T07:42:24;6.23;;;5.73;;
5491;SDS011;2768;53.540;10.224;2022-11-20T07:48:18;5.23;;;4.83;;
5491;SDS011;2768;53.540;10.224;2022-11-20T07:54:12;4.40;;;4.00;;
5491;SDS011;2768;53.540;10.224;2022-11-20T08:00:06;4.60;;;4.30;;
5491;SDS011;2768;53.540;10.224;2022-11-20T08:06:05;4.60;;;4.30;;
5491;SDS011;2768;53.540;10.224;2022-11-20T08:11:59;4.17;;;3.87;;
5491;SDS011;2768;53.540;10.224;2022-11-20T08:18:10;4.10;;;3.80;;
5491;SDS011;2768;53.540;10.224;2022-11-20T08:24:26;4.70;;;4.30;;
5491;SDS011;2768;53.540;10.224;2022-11-20T08:30:19;4.83;;;4.43;;
5491;SDS011;2768;53.540;10.224;2022-11-20T08:36:12;5.30;;;4.67;;
5491;SDS011;2768;53.540;10.224;2022-11-20T08:42:08;5.53;;;5.03;;
5491;SDS011;2768;53.540;10.224;2022-11-20T08:48:01;5.70;;;5.20;;
5491;SDS011;2768;53.540;10.224;2022-11-20T08:53:58;6.27;;;5.67;;
5491;SDS011;2768;53.540;10.224;2022-11-20T08:59:52;5.43;;;3.80;;
5491;SDS011;2768;53.540;10.224;2022-11-20T09:06:02;4.00;;;3.70;;
5491;SDS011;2768;53.540;10.224;2022-11-20T09:11:57;3.63;;;3.33;;
5491;SDS011;2768;53.540;10.224;2022-11-20T09:17:51;3.40;;;3.20;;
5491;SDS011;2768;53.540;10.224;2022-11-20T09:23:45;3.27;;;3.00;;
5491;SDS011;2768;53.540;10.224;2022-11-20T09:29:39;3.27;;;3.07;;
5491;SDS011;2768;53.540;10.224;2022-11-20T09:35:34;3.13;;;2.83;;
5491;SDS011;2768;53.540;10.224;2022-11-20T09:41:36;3.30;;;3.00;;
5491;SDS011;2768;53.540;10.224;2022-11-20T09:47:53;2.70;;;2.57;;
5491;SDS011;2768;53.540;10.224;2022-11-20T09:54:12;2.80;;;2.63;;
5491;SDS011;2768;53.540;10.224;2022-11-20T10:00:09;2.47;;;2.37;;
5491;SDS011;2768;53.540;10.224;2022-11-20T10:06:05;2.70;;;2.50;;
5491;SDS011;2768;53.540;10.224;2022-11-20T10:12:11;2.90;;;2.70;;
5491;SDS011;2768;53.540;10.224;2022-11-20T10:18:17;2.73;;;2.53;;
5491;SDS011;2768;53.540;10.224;2022-11-20T10:24:26;3.20;;;3.00;;
5491;SDS011;2768;53.540;10.224;2022-11-20T10:30:35;3.57;;;3.30;;
5491;SDS011;2768;53.540;10.224;2022-11-20T10:36:33;3.53;;;3.30;;
5491;SDS011;2768;53.540;10.224;2022-11-20T10:42:31;3.57;;;3.27;;
5491;SDS011;2768;53.540;10.224;2022-11-20T10:48:31;3.97;;;3.57;;
5491;SDS011;2768;53.540;10.224;2022-11-20T10:54:29;3.40;;;3.20;;
5491;SDS011;2768;53.540;10.224;2022-11-20T11:00:30;5.93;;;4.53;;
5491;SDS011;2768;53.540;10.224;2022-11-20T11:06:28;4.43;;;3.30;;
5491;SDS011;2768;53.540;10.224;2022-11-20T11:12:28;2.83;;;2.63;;
5491;SDS011;2768;53.540;10.224;2022-11-20T11:18:22;3.10;;;2.90;;
5491;SDS011;2768;53.540;10.224;2022-11-20T11:24:20;2.67;;;2.57;;
5491;SDS011;2768;53.540;10.224;2022-11-20T11:30:40;3.23;;;2.63;;
5491;SDS011;2768;53.540;10.224;2022-11-20T11:36:36;2.60;;;2.43;;
5491;SDS011;2768;53.540;10.224;2022-11-20T11:42:31;2.20;;;2.10;;
5491;SDS011;2768;53.540;10.224;2022-11-20T11:48:25;3.00;;;2.80;;
5491;SDS011;2768;53.540;10.224;2022-11-20T11:54:19;4.10;;;3.80;;
5491;SDS011;2768;53.540;10.224;2022-11-20T12:00:19;2.87;;;2.67;;
5491;SDS011;2768;53.540;10.224;2022-11-20T12:06:14;2.63;;;2.43;;
5491;SDS011;2768;53.540;10.224;2022-11-20T12:12:10;2.30;;;2.20;;
5491;SDS011;2768;53.540;10.224;2022-11-20T12:18:09;2.50;;;2.40;;
5491;SDS011;2768;53.540;10.224;2022-11-20T12:24:19;2.10;;;2.00;;
5491;SDS011;2768;53.540;10.224;2022-11-20T12:30:26;2.23;;;2.13;;
5491;SDS011;2768;53.540;10.224;2022-11-20T12:36:23;2.30;;;2.20;;
5491;SDS011;2768;53.540;10.224;2022-11-20T12:42:34;2.27;;;2.17;;
5491;SDS011;2768;53.540;10.224;2022-11-20T12:49:02;2.97;;;2.77;;
5491;SDS011;2768;53.540;10.224;2022-11-20T12:55:09;2.20;;;2.10;;
5491;SDS011;2768;53.540;10.224;2022-11-20T13:01:17;2.40;;;2.27;;
5491;SDS011;2768;53.540;10.224;2022-11-20T13:07:31;2.50;;;2.40;;
5491;SDS011;2768;53.540;10.224;2022-11-20T13:13:29;3.20;;;3.00;;
5491;SDS011;2768;53.540;10.224;2022-11-20T13:19:28;3.00;;;2.80;;
5491;SDS011;2768;53.540;10.224;2022-11-20T13:25:22;2.73;;;2.53;;
5491;SDS011;2768;53.540;10.224;2022-11-20T13:31:27;2.90;;;2.70;;
5491;SDS011;2768;53.540;10.224;2022-11-20T13:37:24;3.13;;;2.93;;
5491;SDS011;2768;53.540;10.224;2022-11-20T13:43:26;2.70;;;2.50;;
5491;SDS011;2768;53.540;10.224;2022-11-20T13:49:29;2.67;;;2.50;;
5491;SDS011;2768;53.540;10.224;2022-11-20T13:55:26;3.03;;;2.83;;
5491;SDS011;2768;53.540;10.224;2022-11-20T14:01:28;2.77;;;2.57;;
5491;SDS011;2768;53.540;10.224;2022-11-20T14:07:25;3.07;;;2.87;;
5491;SDS011;2768;53.540;10.224;2022-11-20T14:13:25;4.33;;;3.17;;
5491;SDS011;2768;53.540;10.224;2022-11-20T14:25:33;3.37;;;3.17;;
5491;SDS011;2768;53.540;10.224;2022-11-20T14:31:26;3.60;;;3.30;;
5491;SDS011;2768;53.540;10.224;2022-11-20T14:37:21;3.10;;;2.90;;
5491;SDS011;2768;53.540;10.224;2022-11-20T14:43:20;3.40;;;3.10;;
5491;SDS011;2768;53.540;10.224;2022-11-20T14:49:15;3.30;;;3.00;;
5491;SDS011;2768;53.540;10.224;2022-11-20T14:55:13;5.03;;;4.53;;
5491;SDS011;2768;53.540;10.224;2022-11-20T15:01:18;3.67;;;3.37;;
5491;SDS011;2768;53.540;10.224;2022-11-20T15:07:25;3.80;;;3.50;;
5491;SDS011;2768;53.540;10.224;2022-11-20T15:13:23;4.23;;;3.47;;
5491;SDS011;2768;53.540;10.224;2022-11-20T15:19:20;3.53;;;3.23;;
5491;SDS011;2768;53.540;10.224;2022-11-20T15:25:16;2.67;;;2.47;;
5491;SDS011;2768;53.540;10.224;2022-11-20T15:31:10;3.43;;;2.80;;
5491;SDS011;2768;53.540;10.224;2022-11-20T15:37:06;2.37;;;2.27;;
5491;SDS011;2768;53.540;10.224;2022-11-20T15:43:00;2.60;;;2.40;;
5491;SDS011;2768;53.540;10.224;2022-11-20T15:49:04;3.70;;;2.90;;
5491;SDS011;2768;53.540;10.224;2022-11-20T15:54:59;2.70;;;2.50;;
5491;SDS011;2768;53.540;10.224;2022-11-20T16:00:59;3.80;;;3.50;;
5491;SDS011;2768;53.540;10.224;2022-11-20T16:06:53;3.67;;;3.40;;
5491;SDS011;2768;53.540;10.224;2022-11-20T16:12:49;4.83;;;4.33;;
5491;SDS011;2768;53.540;10.224;2022-11-20T16:19:00;3.97;;;3.50;;
5491;SDS011;2768;53.540;10.224;2022-11-20T16:24:54;4.83;;;4.37;;
5491;SDS011;2768;53.540;10.224;2022-11-20T16:30:48;4.20;;;3.83;;
5491;SDS011;2768;53.540;10.224;2022-11-20T16:36:42;5.10;;;4.67;;
5491;SDS011;2768;53.540;10.224;2022-11-20T16:42:36;5.90;;;4.67;;
5491;SDS011;2768;53.540;10.224;2022-11-20T16:48:31;5.87;;;5.27;;
5491;SDS011;2768;53.540;10.224;2022-11-20T16:54:24;5.27;;;4.80;;
5491;SDS011;2768;53.540;10.224;2022-11-20T17:00:18;5.90;;;5.33;;
5491;SDS011;2768;53.540;10.224;2022-11-20T17:06:13;5.30;;;4.90;;
5491;SDS011;2768;53.540;10.224;2022-11-20T17:12:07;4.37;;;3.97;;
5491;SDS011;2768;53.540;10.224;2022-11-20T17:18:01;5.03;;;4.63;;
5491;SDS011;2768;53.540;10.224;2022-11-20T17:23:58;5.00;;;4.63;;
5491;SDS011;2768;53.540;10.224;2022-11-20T17:29:53;4.80;;;4.40;;
5491;SDS011;2768;53.540;10.224;2022-11-20T17:35:48;4.43;;;4.13;;
5491;SDS011;2768;53.540;10.224;2022-11-20T17:41:43;4.53;;;4.13;;
5491;SDS011;2768;53.540;10.224;2022-11-20T17:47:57;5.43;;;4.93;;
5491;SDS011;2768;53.540;10.224;2022-11-20T17:53:50;4.77;;;4.23;;
5491;SDS011;2768;53.540;10.224;2022-11-20T17:59:46;5.97;;;4.90;;
5491;SDS011;2768;53.540;10.224;2022-11-20T18:05:40;5.03;;;4.30;;
5491;SDS011;2768;53.540;10.224;2022-11-20T18:11:34;5.27;;;4.77;;
5491;SDS011;2768;53.540;10.224;2022-11-20T18:17:30;5.30;;;4.80;;
5491;SDS011;2768;53.540;10.224;2022-11-20T18:23:24;8.33;;;5.37;;
5491;SDS011;2768;53.540;10.224;2022-11-20T18:29:17;10.77;;;6.57;;
5491;SDS011;2768;53.540;10.224;2022-11-20T18:35:13;6.13;;;5.33;;
5491;SDS011;2768;53.540;10.224;2022-11-20T18:41:07;8.43;;;7.53;;
5491;SDS011;2768;53.540;10.224;2022-11-20T18:47:21;9.70;;;8.70;;
5491;SDS011;2768;53.540;10.224;2022-11-20T18:53:17;8.27;;;6.60;;
5491;SDS011;2768;53.540;10.224;2022-11-20T18:59:11;5.33;;;4.83;;
5491;SDS011;2768;53.540;10.224;2022-11-20T19:05:05;7.00;;;5.63;;
5491;SDS011;2768;53.540;10.224;2022-11-20T19:11:05;7.47;;;6.80;;
5491;SDS011;2768;53.540;10.224;2022-11-20T19:16:59;7.13;;;6.43;;
5491;SDS011;2768;53.540;10.224;2022-11-20T19:22:53;7.87;;;7.10;;
5491;SDS011;2768;53.540;10.224;2022-11-20T19:28:48;7.90;;;7.10;;
5491;SDS011;2768;53.540;10.224;2022-11-20T19:34:41;9.97;;;8.97;;
5491;SDS011;2768;53.540;10.224;2022-11-20T19:40:34;13.03;;;10.30;;
5491;SDS011;2768;53.540;10.224;2022-11-20T19:46:30;14.53;;;10.90;;
5491;SDS011;2768;53.540;10.224;2022-11-20T19:52:25;11.07;;;9.93;;
5491;SDS011;2768;53.540;10.224;2022-11-20T19:58:18;12.80;;;10.07;;
5491;SDS011;2768;53.540;10.224;2022-11-20T20:04:12;11.70;;;9.70;;
5491;SDS011;2768;53.540;10.224;2022-11-20T20:10:06;10.73;;;9.73;;
5491;SDS011;2768;53.540;10.224;2022-11-20T20:16:00;11.37;;;10.17;;
5491;SDS011;2768;53.540;10.224;2022-11-20T20:21:54;11.80;;;10.53;;
5491;SDS011;2768;53.540;10.224;2022-11-20T20:27:47;13.13;;;11.70;;
5491;SDS011;2768;53.540;10.224;2022-11-20T20:33:41;11.97;;;10.77;;
5491;SDS011;2768;53.540;10.224;2022-11-20T20:39:36;11.90;;;10.60;;
5491;SDS011;2768;53.540;10.224;2022-11-20T20:45:29;13.20;;;11.87;;
5491;SDS011;2768;53.540;10.224;2022-11-20T20:51:22;12.17;;;10.67;;
5491;SDS011;2768;53.540;10.224;2022-11-20T20:57:17;11.27;;;10.07;;
5491;SDS011;2768;53.540;10.224;2022-11-20T21:03:11;11.27;;;9.40;;
5491;SDS011;2768;53.540;10.224;2022-11-20T21:09:04;11.40;;;10.30;;
5491;SDS011;2768;53.540;10.224;2022-11-20T21:14:59;11.83;;;10.07;;
5491;SDS011;2768;53.540;10.224;2022-11-20T21:20:53;10.67;;;9.67;;
5491;SDS011;2768;53.540;10.224;2022-11-20T21:27:04;11.77;;;10.63;;
5491;SDS011;2768;53.540;10.224;2022-11-20T21:32:59;12.43;;;11.13;;
5491;SDS011;2768;53.540;10.224;2022-11-20T21:38:53;13.33;;;11.60;;
5491;SDS011;2768;53.540;10.224;2022-11-20T21:44:48;13.37;;;11.97;;
5491;SDS011;2768;53.540;10.224;2022-11-20T21:50:42;14.07;;;12.60;;
5491;SDS011;2768;53.540;10.224;2022-11-20T21:56:36;12.67;;;11.33;;
5491;SDS011;2768;53.540;10.224;2022-11-20T22:02:30;11.97;;;10.70;;
5491;SDS011;2768;53.540;10.224;2022-11-20T22:08:25;11.10;;;10.00;;
5491;SDS011;2768;53.540;10.224;2022-11-20T22:14:18;13.20;;;11.83;;
5491;SDS011;2768;53.540;10.224;2022-11-20T22:20:13;10.93;;;9.80;;
5491;SDS011;2768;53.540;10.224;2022-11-20T22:26:09;12.23;;;10.60;;
5491;SDS011;2768;53.540;10.224;2022-11-20T22:32:03;12.50;;;11.30;;
5491;SDS011;2768;53.540;10.224;2022-11-20T22:37:57;14.40;;;12.80;;
5491;SDS011;2768;53.540;10.224;2022-11-20T22:43:53;15.40;;;13.70;;
5491;SDS011;2768;53.540;10.224;2022-11-20T22:49:48;13.23;;;11.83;;
5491;SDS011;2768;53.540;10.224;2022-11-20T22:55:41;13.47;;;11.50;;
5491;SDS011;2768;53.540;10.224;2022-11-20T23:01:36;14.17;;;12.63;;
5491;SDS011;2768;53.540;10.224;2022-11-20T23:07:30;12.53;;;11.30;;
5491;SDS011;2768;53.540;10.224;2022-11-20T23:13:31;13.43;;;11.87;;
5491;SDS011;2768;53.540;10.224;2022-11-20T23:19:27;13.80;;;12.23;;
5491;SDS011;2768;53.540;10.224;2022-11-20T23:25:20;14.03;;;12.50;;
5491;SDS011;2768;53.540;10.224;2022-11-20T23:31:14;13.70;;;11.40;;
5491;SDS011;2768;53.540;10.224;2022-11-20T23:37:09;14.40;;;11.90;;
5491;SDS011;2768;53.540;10.224;2022-11-20T23:43:03;16.30;;;12.00;;
5491;SDS011;2768;53.540;10.224;2022-11-20T23:49:09;15.57;;;12.20;;
5491;SDS011;2768;53.540;10.224;2022-11-20T23:55:04;14.63;;;12.97;;
